Time;durP1;ratioP1;P1;durP2;ratioP2;P2;SDS_P1;SDS_P2;PMS_P1;PMS_P2;Temp;Humidity;BMP_temperature;BMP_pressure;BME280_temperature;BME280_humidity;BME280_pressure;Samples;Min_cycle;Max_cycle;Signal;HPM_P1;HPM_P2
2024/01/10 00:01:53;;;;;;;1624.30;999.90;;;-3.40;99.90;;;;;;4998133;28;20050;-81
2024/01/10 00:04:20;;;;;;;1889.50;999.90;;;-2.80;99.90;;;;;;4994461;28;20099;-82
2024/01/10 00:06:45;;;;;;;1860.68;999.90;;;-4.20;99.90;;;;;;4994926;28;20543;-82
2024/01/10 00:09:11;;;;;;;1903.70;999.90;;;-3.30;99.90;;;;;;4992855;28;20493;-81
2024/01/10 00:11:37;;;;;;;1914.78;999.90;;;-4.20;99.90;;;;;;4994578;28;20046;-81
2024/01/10 00:14:03;;;;;;;1861.22;999.90;;;-4.10;99.90;;;;;;4993844;28;20034;-81
2024/01/10 00:16:29;;;;;;;1973.95;999.90;;;-4.30;99.90;;;;;;4995524;28;20111;-81
2024/01/10 00:18:55;;;;;;;1977.63;999.90;;;-3.30;99.90;;;;;;4993489;28;20050;-81
2024/01/10 00:21:20;;;;;;;1853.88;999.90;;;-4.30;99.90;;;;;;4992892;28;20508;-81
2024/01/10 00:23:46;;;;;;;1936.85;999.90;;;-3.30;99.90;;;;;;4996914;28;20053;-81
2024/01/10 00:26:12;;;;;;;1948.07;999.90;;;-4.40;99.90;;;;;;4996134;28;20050;-81
2024/01/10 00:28:38;;;;;;;1853.88;999.90;;;-4.40;99.90;;;;;;4993578;28;20486;-81
2024/01/10 00:31:03;;;;;;;1929.40;999.90;;;-4.50;99.90;;;;;;4979448;28;20061;-81
2024/01/10 00:33:29;;;;;;;1991.75;999.90;;;-3.50;99.90;;;;;;4997542;28;20030;-81
2024/01/10 00:35:55;;;;;;;1999.90;999.90;;;-3.00;99.90;;;;;;4977556;28;20180;-81
2024/01/10 00:38:21;;;;;;;1909.80;999.90;;;-3.50;99.90;;;;;;5027148;28;20340;-81
2024/01/10 00:40:46;;;;;;;1951.13;999.90;;;-3.40;99.90;;;;;;4996542;28;20140;-81
2024/01/10 00:43:12;;;;;;;1914.88;999.90;;;-3.10;99.90;;;;;;4995546;28;20098;-81
2024/01/10 00:45:38;;;;;;;1999.15;999.90;;;-4.40;99.90;;;;;;4993976;28;20574;-81
2024/01/10 00:48:04;;;;;;;1999.90;999.90;;;-3.40;99.90;;;;;;4995329;28;20038;-81
2024/01/10 00:50:29;;;;;;;1999.90;999.90;;;-4.50;99.90;;;;;;4994433;28;20437;-81
2024/01/10 00:52:55;;;;;;;1950.40;999.90;;;-4.50;99.90;;;;;;4992518;28;20041;-81
2024/01/10 00:55:21;;;;;;;1957.70;999.90;;;-4.50;99.90;;;;;;4996701;28;20050;-81
2024/01/10 00:57:46;;;;;;;1917.63;999.90;;;-4.50;99.90;;;;;;4994103;28;20071;-81
2024/01/10 01:00:12;;;;;;;1915.72;999.90;;;-3.50;99.90;;;;;;4993198;28;20057;-81
2024/01/10 01:02:39;;;;;;;1894.40;999.90;;;-4.50;99.90;;;;;;4993158;28;20034;-81
2024/01/10 01:05:07;;;;;;;1870.38;999.90;;;-4.00;99.90;;;;;;4992351;28;20038;-81
2024/01/10 01:07:32;;;;;;;1938.10;999.90;;;-4.50;99.90;;;;;;4992987;28;20519;-81
2024/01/10 01:09:58;;;;;;;1975.80;999.90;;;-4.60;99.90;;;;;;4990879;28;20172;-81
2024/01/10 01:12:24;;;;;;;1999.90;999.90;;;-4.10;99.90;;;;;;4993399;28;20042;-81
2024/01/10 01:14:50;;;;;;;1999.90;999.90;;;-4.70;99.90;;;;;;4992937;28;20397;-81
2024/01/10 01:17:15;;;;;;;1999.90;999.90;;;-4.70;99.90;;;;;;4992818;28;20046;-81
2024/01/10 01:19:41;;;;;;;1999.90;999.90;;;-3.90;99.90;;;;;;4992997;28;20081;-81
2024/01/10 01:22:07;;;;;;;1999.90;999.90;;;-4.80;99.90;;;;;;4992912;28;20053;-81
2024/01/10 01:24:33;;;;;;;1999.90;999.90;;;-4.80;99.90;;;;;;4995974;28;20121;-81
2024/01/10 01:26:59;;;;;;;1968.57;999.90;;;-4.30;99.90;;;;;;4993376;28;20270;-81
2024/01/10 01:29:24;;;;;;;1996.82;999.90;;;-3.40;99.90;;;;;;4976917;28;20094;-81
2024/01/10 01:31:50;;;;;;;1985.00;999.90;;;-4.10;99.90;;;;;;4993038;28;20077;-81
2024/01/10 01:34:16;;;;;;;1996.22;999.90;;;-4.90;99.90;;;;;;4994784;28;20046;-81
2024/01/10 01:36:41;;;;;;;1999.90;999.90;;;-4.90;99.90;;;;;;5003213;28;20173;-81
2024/01/10 01:39:07;;;;;;;1999.90;999.90;;;-4.90;99.90;;;;;;4999153;28;20549;-81
2024/01/10 01:41:33;;;;;;;1999.90;999.90;;;-5.00;99.90;;;;;;4995173;28;20049;-81
2024/01/10 01:43:58;;;;;;;1999.90;999.90;;;-4.90;99.90;;;;;;5000820;28;20049;-81
2024/01/10 01:46:24;;;;;;;1999.90;999.90;;;-4.90;99.90;;;;;;5000653;28;20494;-81
2024/01/10 01:48:52;;;;;;;1999.90;999.90;;;-4.90;99.90;;;;;;4986595;28;20046;-81
2024/01/10 01:51:20;;;;;;;1999.90;999.90;;;-4.90;99.90;;;;;;4987538;28;20054;-81
2024/01/10 01:53:47;;;;;;;1999.90;999.90;;;-4.90;99.90;;;;;;4984705;28;20050;-81
2024/01/10 01:56:14;;;;;;;1999.90;999.90;;;-3.90;99.90;;;;;;4993445;28;20054;-81
2024/01/10 01:58:40;;;;;;;1999.90;999.90;;;-4.90;99.90;;;;;;4983086;28;20398;-81
2024/01/10 02:01:06;;;;;;;1999.90;999.90;;;-5.00;99.90;;;;;;5002611;28;20085;-81
2024/01/10 02:03:33;;;;;;;1999.90;999.90;;;-5.00;99.90;;;;;;4973133;28;20042;-81
2024/01/10 02:05:59;;;;;;;1999.90;999.90;;;-5.00;99.90;;;;;;4992300;28;20046;-81
2024/01/10 02:08:25;;;;;;;1999.90;999.90;;;-5.00;99.90;;;;;;4991890;28;20099;-81
2024/01/10 02:10:51;;;;;;;1999.90;999.90;;;-5.00;99.90;;;;;;4999973;28;20156;-81
2024/01/10 02:13:17;;;;;;;1999.90;999.90;;;-5.10;99.90;;;;;;4992208;28;20121;-81
2024/01/10 02:15:43;;;;;;;1999.90;999.90;;;-5.10;99.90;;;;;;4995979;28;20079;-81
2024/01/10 02:18:12;;;;;;;1999.90;999.90;;;-5.10;99.90;;;;;;4995608;28;20094;-81
2024/01/10 02:20:38;;;;;;;1999.90;999.90;;;-5.10;99.90;;;;;;4999988;28;20751;-81
2024/01/10 02:23:04;;;;;;;1999.90;999.90;;;-4.00;99.90;;;;;;4984102;28;20053;-81
2024/01/10 02:25:29;;;;;;;1999.90;999.90;;;-5.10;99.90;;;;;;4984690;28;20354;-81
2024/01/10 02:27:55;;;;;;;1999.90;999.90;;;-5.20;99.90;;;;;;4993436;28;20118;-81
2024/01/10 02:30:21;;;;;;;1999.90;999.90;;;-5.10;99.90;;;;;;4974455;28;20058;-81
2024/01/10 02:32:46;;;;;;;1999.90;999.90;;;-5.20;99.90;;;;;;4979063;28;20121;-81
2024/01/10 02:35:12;;;;;;;1999.90;999.90;;;-5.10;99.90;;;;;;4984974;28;20711;-81
2024/01/10 02:37:38;;;;;;;1999.90;999.90;;;-5.20;99.90;;;;;;4991480;28;20084;-81
2024/01/10 02:40:04;;;;;;;1999.90;999.90;;;-5.10;99.90;;;;;;4990718;28;20094;-81
2024/01/10 02:42:32;;;;;;;1999.90;999.90;;;-5.10;99.90;;;;;;5000913;28;20049;-81
2024/01/10 02:44:58;;;;;;;1999.90;999.90;;;-5.10;99.90;;;;;;4986257;28;20128;-81
2024/01/10 02:47:23;;;;;;;1999.90;999.90;;;-5.10;99.90;;;;;;4996449;28;20550;-81
2024/01/10 02:49:49;;;;;;;1999.90;999.90;;;-5.10;99.90;;;;;;4984172;28;20046;-81
2024/01/10 02:52:15;;;;;;;1999.90;999.90;;;-5.20;99.90;;;;;;5001638;28;20042;-81
2024/01/10 02:54:41;;;;;;;1999.90;999.90;;;-5.20;99.90;;;;;;5005288;28;20042;-81
2024/01/10 02:57:07;;;;;;;1999.90;999.90;;;-5.20;99.90;;;;;;4986736;28;20042;-80
2024/01/10 02:59:32;;;;;;;1999.90;999.90;;;-5.20;99.90;;;;;;4992364;28;20050;-81
2024/01/10 03:01:58;;;;;;;1999.90;999.90;;;-5.20;99.90;;;;;;4975104;28;20049;-80
2024/01/10 03:04:24;;;;;;;1999.90;999.90;;;-5.20;99.90;;;;;;4980020;28;20115;-81
2024/01/10 03:06:50;;;;;;;1999.90;999.90;;;-5.20;99.90;;;;;;5002961;28;20057;-80
2024/01/10 03:09:16;;;;;;;1999.90;999.90;;;-5.20;99.90;;;;;;5004281;28;20046;-81
2024/01/10 03:11:41;;;;;;;1999.90;999.90;;;-5.20;99.90;;;;;;5006981;28;20129;-80
2024/01/10 03:14:09;;;;;;;1999.90;999.90;;;-5.20;99.90;;;;;;5021486;28;20197;-81
2024/01/10 03:16:35;;;;;;;1999.90;999.90;;;-5.10;99.90;;;;;;4985387;28;20056;-81
2024/01/10 03:19:01;;;;;;;1999.90;999.90;;;-5.20;99.90;;;;;;4999040;28;20050;-81
2024/01/10 03:21:27;;;;;;;1999.90;999.90;;;-5.10;99.90;;;;;;5000982;28;20417;-81
2024/01/10 03:23:56;;;;;;;1999.90;999.90;;;-4.30;99.90;;;;;;5001034;28;20078;-81
2024/01/10 03:26:22;;;;;;;1999.90;999.90;;;-5.10;99.90;;;;;;4985658;28;20046;-81
2024/01/10 03:28:48;;;;;;;1999.90;999.90;;;-5.10;99.90;;;;;;4985908;28;20040;-81
2024/01/10 03:31:14;;;;;;;1999.90;999.90;;;-5.10;99.90;;;;;;5000011;28;20060;-82
2024/01/10 03:33:40;;;;;;;1999.90;999.90;;;-5.00;99.90;;;;;;5004899;28;20125;-81
2024/01/10 03:36:07;;;;;;;1999.90;999.90;;;-5.10;99.90;;;;;;5007353;28;20125;-81
2024/01/10 03:38:32;;;;;;;1999.90;999.90;;;-5.10;99.90;;;;;;5002995;28;20472;-81
2024/01/10 03:40:58;;;;;;;1999.90;999.90;;;-5.10;99.90;;;;;;4990310;28;20506;-81
2024/01/10 03:43:24;;;;;;;1999.90;999.90;;;-5.10;99.90;;;;;;5005517;28;20455;-81
2024/01/10 03:45:49;;;;;;;1999.90;999.90;;;-5.10;99.90;;;;;;5036918;28;20093;-81
2024/01/10 03:48:15;;;;;;;1999.90;999.90;;;-5.20;99.90;;;;;;4992995;28;20129;-81
2024/01/10 03:50:41;;;;;;;1999.90;999.90;;;-4.00;99.90;;;;;;5003906;28;20049;-81
2024/01/10 03:53:07;;;;;;;1999.90;999.90;;;-5.20;99.90;;;;;;5005161;28;20048;-81
2024/01/10 03:55:32;;;;;;;1999.90;999.90;;;-5.20;99.90;;;;;;5036796;28;20050;-81
2024/01/10 03:57:58;;;;;;;1999.90;999.90;;;-5.20;99.90;;;;;;4972928;28;20050;-81
2024/01/10 04:00:25;;;;;;;1999.90;999.90;;;-5.20;99.90;;;;;;5003779;28;20397;-81
2024/01/10 04:02:51;;;;;;;1999.90;999.90;;;-5.20;99.90;;;;;;4987674;28;20049;-81
2024/01/10 04:05:17;;;;;;;1999.90;999.90;;;-5.20;99.90;;;;;;4986857;28;20108;-81
2024/01/10 04:07:43;;;;;;;1999.90;999.90;;;-5.20;99.90;;;;;;4970376;28;20168;-81
2024/01/10 04:10:10;;;;;;;1999.90;999.90;;;-4.20;99.90;;;;;;4995860;28;20493;-81
2024/01/10 04:12:37;;;;;;;1999.90;999.90;;;-5.30;99.90;;;;;;5000343;28;20053;-82
2024/01/10 04:15:04;;;;;;;1999.90;999.90;;;-5.40;99.90;;;;;;4977747;28;20110;-81
2024/01/10 04:17:30;;;;;;;1999.90;999.90;;;-5.30;99.90;;;;;;4987597;28;20117;-81
2024/01/10 04:19:56;;;;;;;1999.90;999.90;;;-4.70;99.90;;;;;;4994737;28;20106;-80
2024/01/10 04:22:24;;;;;;;1999.90;999.90;;;-5.40;99.90;;;;;;5000243;28;20129;-81
2024/01/10 04:24:49;;;;;;;1999.90;999.90;;;-5.50;99.90;;;;;;4999297;28;20670;-81
2024/01/10 04:27:15;;;;;;;1999.90;999.90;;;-5.50;99.90;;;;;;4987549;28;20228;-81
2024/01/10 04:29:41;;;;;;;1999.90;999.90;;;-5.50;99.90;;;;;;5037300;28;20161;-81
2024/01/10 04:32:07;;;;;;;1999.90;999.90;;;-4.60;99.90;;;;;;5004066;28;20089;-82
2024/01/10 04:34:33;;;;;;;1999.90;999.90;;;-5.50;99.90;;;;;;5003090;28;20130;-81
2024/01/10 04:36:58;;;;;;;1999.90;999.90;;;-5.50;99.90;;;;;;5003645;28;20625;-82
2024/01/10 04:39:24;;;;;;;1999.90;999.90;;;-5.50;99.90;;;;;;5033656;28;20561;-81
2024/01/10 04:41:50;;;;;;;1999.90;999.90;;;-5.50;99.90;;;;;;4995591;28;20046;-81
2024/01/10 04:44:16;;;;;;;1999.90;999.90;;;-4.80;99.90;;;;;;4986904;28;20121;-81
2024/01/10 04:46:41;;;;;;;1999.90;999.90;;;-5.50;99.90;;;;;;5005449;28;20242;-81
2024/01/10 04:49:07;;;;;;;1999.90;999.90;;;-5.50;99.90;;;;;;4984940;28;20057;-81
2024/01/10 04:51:33;;;;;;;1999.90;999.90;;;-5.50;99.90;;;;;;4984805;28;20037;-81
2024/01/10 04:53:59;;;;;;;1999.90;999.90;;;-5.40;99.90;;;;;;4986084;28;20047;-81
2024/01/10 04:56:25;;;;;;;1999.90;999.90;;;-5.40;99.90;;;;;;4984076;28;20038;-81
2024/01/10 04:58:51;;;;;;;1999.90;999.90;;;-5.40;99.90;;;;;;4985431;28;20168;-81
2024/01/10 05:01:18;;;;;;;1999.90;999.90;;;-5.40;99.90;;;;;;5000064;28;20145;-81
2024/01/10 05:03:43;;;;;;;1999.90;999.90;;;-5.00;99.90;;;;;;5003270;28;20447;-81
2024/01/10 05:06:09;;;;;;;1999.90;999.90;;;-5.40;99.90;;;;;;5016321;28;20038;-81
2024/01/10 05:08:35;;;;;;;1999.90;999.90;;;-5.40;99.90;;;;;;4984101;28;20078;-81
2024/01/10 05:11:01;;;;;;;1999.90;999.90;;;-5.40;99.90;;;;;;4985072;28;20413;-81
2024/01/10 05:13:26;;;;;;;1999.90;999.90;;;-5.40;99.90;;;;;;4984652;28;20041;-81
2024/01/10 05:15:52;;;;;;;1999.90;999.90;;;-5.30;99.90;;;;;;4965388;28;20047;-81
2024/01/10 05:18:18;;;;;;;1999.90;999.90;;;-5.30;99.90;;;;;;4995702;28;20053;-81
2024/01/10 05:20:44;;;;;;;1999.90;999.90;;;-5.30;99.90;;;;;;4975119;28;20713;-81
2024/01/10 05:23:10;;;;;;;1999.90;999.90;;;-3.70;99.90;;;;;;4968697;28;20050;-81
2024/01/10 05:25:36;;;;;;;1999.90;999.90;;;-5.30;99.90;;;;;;5003662;28;20044;-81
2024/01/10 05:28:02;;;;;;;1999.90;999.90;;;-5.20;99.90;;;;;;5019522;28;20509;-81
2024/01/10 05:30:28;;;;;;;1999.90;999.90;;;-5.20;99.90;;;;;;5036008;28;20046;-81
2024/01/10 05:32:53;;;;;;;1999.90;999.90;;;-5.20;99.90;;;;;;4987061;28;20447;-81
2024/01/10 05:35:19;;;;;;;1999.90;999.90;;;-5.20;99.90;;;;;;5001940;28;20045;-81
2024/01/10 05:37:45;;;;;;;1999.90;999.90;;;-5.20;99.90;;;;;;4993746;28;20430;-81
2024/01/10 05:40:11;;;;;;;1999.90;999.90;;;-5.10;99.90;;;;;;4993316;28;20394;-81
2024/01/10 05:42:37;;;;;;;1999.90;999.90;;;-5.10;99.90;;;;;;5004749;28;20048;-81
2024/01/10 05:45:04;;;;;;;1999.90;999.90;;;-5.10;99.90;;;;;;5003623;28;20118;-81
2024/01/10 05:47:30;;;;;;;1999.90;999.90;;;-5.20;99.90;;;;;;4994549;28;20051;-81
2024/01/10 05:49:56;;;;;;;1999.90;999.90;;;-5.30;99.90;;;;;;4984207;28;20096;-81
2024/01/10 05:52:22;;;;;;;1999.90;999.90;;;-5.30;99.90;;;;;;5014740;28;20054;-81
2024/01/10 05:54:48;;;;;;;1999.90;999.90;;;-5.30;99.90;;;;;;4987518;28;20065;-81
2024/01/10 05:57:15;;;;;;;1999.90;999.90;;;-5.30;99.90;;;;;;5002131;28;20481;-81
2024/01/10 05:59:41;;;;;;;1999.90;999.90;;;-5.30;99.90;;;;;;5002332;28;20092;-81
2024/01/10 06:02:07;;;;;;;1999.90;999.90;;;-5.40;99.90;;;;;;4970243;28;20122;-81
2024/01/10 06:04:32;;;;;;;1999.90;999.90;;;-5.30;99.90;;;;;;4985386;28;20046;-81
2024/01/10 06:06:59;;;;;;;1999.90;999.90;;;-5.30;99.90;;;;;;4964345;28;20158;-81
2024/01/10 06:09:24;;;;;;;1999.90;999.90;;;-5.40;99.90;;;;;;4983196;28;20440;-81
2024/01/10 06:11:50;;;;;;;1999.90;999.90;;;-5.40;99.90;;;;;;4983586;28;20060;-81
2024/01/10 06:14:16;;;;;;;1999.90;999.90;;;-4.80;99.90;;;;;;4982860;28;20129;-81
2024/01/10 06:16:43;;;;;;;1999.90;999.90;;;-5.50;99.90;;;;;;4996223;28;20085;-82
2024/01/10 06:19:10;;;;;;;1999.90;999.90;;;-5.50;99.90;;;;;;4976486;28;20054;-81
2024/01/10 06:21:36;;;;;;;1999.90;999.90;;;-5.40;99.90;;;;;;4991545;28;20110;-81
2024/01/10 06:24:02;;;;;;;1999.90;999.90;;;-5.40;99.90;;;;;;5003468;28;20057;-81
2024/01/10 06:26:28;;;;;;;1999.90;999.90;;;-5.30;99.90;;;;;;4991885;28;20066;-82
2024/01/10 06:28:53;;;;;;;1999.90;999.90;;;-5.50;99.90;;;;;;4987568;28;20046;-81
2024/01/10 06:31:20;;;;;;;1999.90;999.90;;;-5.50;99.90;;;;;;5036706;28;20141;-81
2024/01/10 06:33:46;;;;;;;1999.90;999.90;;;-5.50;99.90;;;;;;5004836;28;20050;-82
2024/01/10 06:36:11;;;;;;;1999.90;999.90;;;-5.50;99.90;;;;;;4993942;28;20525;-82
2024/01/10 06:38:39;;;;;;;1999.90;999.90;;;-5.50;99.90;;;;;;5004147;28;20113;-81
2024/01/10 06:41:09;;;;;;;1999.90;999.90;;;-5.50;99.90;;;;;;5005460;28;20042;-81
2024/01/10 06:43:36;;;;;;;1999.90;999.90;;;-5.50;99.90;;;;;;4982045;28;20409;-82
2024/01/10 06:46:03;;;;;;;1999.90;999.90;;;-4.30;99.90;;;;;;4976790;28;20054;-82
2024/01/10 06:48:29;;;;;;;1999.90;999.90;;;-5.50;99.90;;;;;;4991376;28;20147;-82
2024/01/10 06:50:55;;;;;;;1999.90;999.90;;;-5.50;99.90;;;;;;5006587;28;20064;-82
2024/01/10 06:53:21;;;;;;;1999.90;999.90;;;-4.00;99.90;;;;;;4987911;28;20080;-82
2024/01/10 06:55:48;;;;;;;1999.90;999.90;;;-4.90;99.90;;;;;;5004198;28;20045;-83
2024/01/10 06:58:13;;;;;;;1999.90;999.90;;;-5.50;99.90;;;;;;4988785;28;20038;-82
2024/01/10 07:00:39;;;;;;;1999.90;999.90;;;-4.90;99.90;;;;;;5005544;28;20489;-82
2024/01/10 07:03:05;;;;;;;1999.90;999.90;;;-5.50;99.90;;;;;;4988272;28;20046;-82
2024/01/10 07:05:31;;;;;;;1999.90;999.90;;;-5.50;99.90;;;;;;5005451;28;20046;-82
2024/01/10 07:07:59;;;;;;;1999.90;999.90;;;-5.50;99.90;;;;;;5004583;28;20054;-82
2024/01/10 07:10:27;;;;;;;1999.90;999.90;;;-4.40;99.90;;;;;;4997673;28;20443;-82
2024/01/10 07:12:54;;;;;;;1999.90;999.90;;;-5.20;99.90;;;;;;5002453;28;20113;-82
2024/01/10 07:15:20;;;;;;;1999.90;999.90;;;-5.40;99.90;;;;;;4986406;28;20054;-82
2024/01/10 07:17:45;;;;;;;1999.90;999.90;;;-4.00;99.90;;;;;;4983343;28;20614;-81
2024/01/10 07:20:12;;;;;;;1999.90;999.90;;;-5.30;99.90;;;;;;4995064;28;20717;-81
2024/01/10 07:22:41;;;;;;;1999.90;999.90;;;-4.50;99.90;;;;;;5001904;28;20051;-82
2024/01/10 07:25:09;;;;;;;1999.90;999.90;;;-4.30;99.90;;;;;;4997431;28;20068;-82
2024/01/10 07:27:37;;;;;;;1999.90;999.90;;;-5.10;99.90;;;;;;4986399;28;20046;-82
2024/01/10 07:30:11;;;;;;;1999.90;999.90;;;-4.00;99.90;;;;;;4985756;28;20050;-82
2024/01/10 07:32:37;;;;;;;1937.55;999.90;;;-5.10;99.90;;;;;;4985821;28;20039;-81
2024/01/10 07:35:03;;;;;;;1999.90;999.90;;;-5.10;99.90;;;;;;4986884;28;20140;-82
2024/01/10 07:37:28;;;;;;;1999.90;999.90;;;-5.10;99.90;;;;;;4983245;28;20046;-82
2024/01/10 07:39:56;;;;;;;1999.90;999.90;;;-5.10;99.90;;;;;;4988030;28;20153;-82
2024/01/10 07:42:21;;;;;;;1999.90;999.90;;;-5.00;99.90;;;;;;4985950;28;20082;-81
2024/01/10 07:44:47;;;;;;;1999.90;999.90;;;-5.10;99.90;;;;;;4989615;28;20074;-82
2024/01/10 07:47:13;;;;;;;1999.90;999.90;;;-5.10;99.90;;;;;;4990423;28;20286;-82
2024/01/10 07:49:38;;;;;;;1999.90;999.90;;;-5.10;99.90;;;;;;4999380;28;20073;-81
2024/01/10 07:52:04;;;;;;;1881.85;999.90;;;-5.00;99.90;;;;;;4992001;28;20046;-81
2024/01/10 07:54:31;;;;;;;1989.50;999.90;;;-5.00;99.90;;;;;;4993361;28;20087;-82
2024/01/10 07:56:58;;;;;;;1999.90;999.90;;;-5.10;99.90;;;;;;4993115;28;20065;-82
2024/01/10 07:59:24;;;;;;;1963.35;999.90;;;-3.40;99.90;;;;;;4991858;28;20045;-81
2024/01/10 08:01:58;;;;;;;1999.90;999.90;;;-4.70;99.90;;;;;;4976729;28;20082;-82
2024/01/10 08:04:25;;;;;;;1999.90;999.90;;;-5.00;99.90;;;;;;4986842;28;20050;-82
2024/01/10 08:06:51;;;;;;;1999.90;999.90;;;-5.00;99.90;;;;;;5002909;28;20455;-81
2024/01/10 08:09:18;;;;;;;1999.90;999.90;;;-4.90;99.90;;;;;;5024266;28;20033;-81
2024/01/10 08:11:45;;;;;;;1923.60;999.90;;;-5.00;99.90;;;;;;5002282;28;20099;-82
2024/01/10 08:14:12;;;;;;;1901.15;999.90;;;-5.00;99.90;;;;;;4987259;28;20498;-82
2024/01/10 08:16:37;;;;;;;1990.70;999.90;;;-5.00;99.90;;;;;;4986369;28;20048;-81
2024/01/10 08:19:03;;;;;;;1950.82;999.90;;;-5.00;99.90;;;;;;4972964;28;20452;-82
2024/01/10 08:21:29;;;;;;;1984.90;999.90;;;-5.00;99.90;;;;;;4977931;28;20467;-82
2024/01/10 08:23:54;;;;;;;1998.38;999.90;;;-5.10;99.90;;;;;;4964545;28;20495;-82
2024/01/10 08:26:20;;;;;;;1955.10;999.90;;;-5.10;99.90;;;;;;5002335;28;20054;-82
2024/01/10 08:28:46;;;;;;;1999.90;999.90;;;-5.10;99.90;;;;;;4995298;28;20043;-82
2024/01/10 08:31:12;;;;;;;1999.90;999.90;;;-5.20;99.90;;;;;;4996632;28;20164;-81
2024/01/10 08:33:39;;;;;;;1999.90;999.90;;;-5.10;99.90;;;;;;4984197;28;20152;-83
2024/01/10 08:36:05;;;;;;;1999.90;999.90;;;-5.10;99.90;;;;;;4995016;28;20074;-81
2024/01/10 08:38:31;;;;;;;1999.90;999.90;;;-5.00;99.90;;;;;;4993333;28;20130;-82
2024/01/10 08:40:57;;;;;;;1999.90;999.90;;;-4.80;99.90;;;;;;4970824;28;20137;-82
2024/01/10 08:43:22;;;;;;;1999.90;999.90;;;-5.10;99.90;;;;;;4980503;28;20038;-82
2024/01/10 08:45:48;;;;;;;1999.90;999.90;;;-5.00;99.90;;;;;;4997743;28;20045;-82
2024/01/10 08:48:15;;;;;;;1999.90;999.90;;;-5.00;99.90;;;;;;4987461;28;20054;-82
2024/01/10 08:50:41;;;;;;;1999.90;999.90;;;-5.00;99.90;;;;;;4973680;28;20461;-82
2024/01/10 08:53:07;;;;;;;1999.90;999.90;;;-5.00;99.90;;;;;;4987178;28;20045;-82
2024/01/10 08:55:34;;;;;;;1999.90;999.90;;;-5.00;99.90;;;;;;5002079;28;20509;-82
2024/01/10 08:58:00;;;;;;;1999.90;999.90;;;-4.90;99.90;;;;;;5003622;28;20054;-83
2024/01/10 09:00:25;;;;;;;1999.90;999.90;;;-4.90;99.90;;;;;;5000046;28;20351;-82
2024/01/10 09:02:52;;;;;;;1999.90;999.90;;;-4.90;99.90;;;;;;4983923;28;20510;-82
2024/01/10 09:05:18;;;;;;;1999.90;999.90;;;-4.80;99.90;;;;;;4987397;28;20553;-81
2024/01/10 09:07:44;;;;;;;1999.90;999.90;;;-4.80;99.90;;;;;;5002643;28;20115;-82
2024/01/10 09:10:09;;;;;;;1999.90;999.90;;;-3.30;99.90;;;;;;4976673;28;20502;-81
2024/01/10 09:12:35;;;;;;;1999.90;999.90;;;-3.70;99.90;;;;;;4978695;28;20082;-82
2024/01/10 09:15:01;;;;;;;1999.90;999.90;;;-4.70;99.90;;;;;;4986975;28;20484;-82
2024/01/10 09:17:28;;;;;;;1999.90;999.90;;;-4.70;99.90;;;;;;4988556;28;20076;-82
2024/01/10 09:19:54;;;;;;;1999.90;999.90;;;-4.80;99.90;;;;;;4981994;28;20047;-82
2024/01/10 09:22:19;;;;;;;1999.90;999.90;;;-4.60;99.90;;;;;;4981543;28;20058;-80
2024/01/10 09:24:45;;;;;;;1999.90;999.90;;;-3.30;99.90;;;;;;5002008;28;20542;-81
2024/01/10 09:27:12;;;;;;;1994.15;999.90;;;-4.60;99.90;;;;;;5007896;28;20141;-84
2024/01/10 09:29:38;;;;;;;1999.90;999.90;;;-3.60;99.90;;;;;;4986237;28;20488;-82
2024/01/10 09:32:04;;;;;;;1955.35;999.90;;;-4.40;99.90;;;;;;5003218;28;20060;-81
2024/01/10 09:34:29;;;;;;;1997.50;999.90;;;-4.30;99.90;;;;;;4984318;28;20444;-81
2024/01/10 09:36:55;;;;;;;1988.93;999.90;;;-3.50;99.90;;;;;;4994280;28;20350;-81
2024/01/10 09:39:21;;;;;;;1666.47;999.90;;;-4.20;99.90;;;;;;4965412;28;20126;-80
2024/01/10 09:41:48;;;;;;;1645.95;999.90;;;-3.60;99.90;;;;;;4983882;28;20046;-81
2024/01/10 09:44:17;;;;;;;1705.72;999.90;;;-4.10;99.90;;;;;;4966986;28;20062;-81
2024/01/10 09:46:47;;;;;;;1552.75;999.90;;;-3.20;99.90;;;;;;4983617;28;20062;-81
2024/01/10 09:49:14;;;;;;;1494.93;999.90;;;-3.30;99.90;;;;;;4971339;28;20048;-81
2024/01/10 09:51:39;;;;;;;1085.32;935.72;;;-3.10;99.90;;;;;;4982619;28;20111;-81
2024/01/10 09:54:05;;;;;;;1286.60;988.97;;;-3.00;99.90;;;;;;4983416;28;20047;-82
2024/01/10 09:56:32;;;;;;;1046.85;916.80;;;-2.80;99.90;;;;;;4965475;28;20058;-82
2024/01/10 09:59:04;;;;;;;963.33;868.17;;;-2.50;99.90;;;;;;4983246;28;20126;-82
2024/01/10 10:01:31;;;;;;;919.70;829.28;;;-3.70;99.90;;;;;;4967650;28;20124;-82
2024/01/10 10:03:58;;;;;;;750.63;688.40;;;-3.50;99.90;;;;;;5000757;28;20421;-82
2024/01/10 10:06:24;;;;;;;748.40;684.78;;;-2.60;99.90;;;;;;4966727;28;20050;-82
2024/01/10 10:08:49;;;;;;;765.42;696.30;;;-3.50;99.90;;;;;;5008285;28;20041;-82
2024/01/10 10:11:15;;;;;;;816.92;741.03;;;-3.50;99.90;;;;;;5018913;28;20050;-81
2024/01/10 10:13:41;;;;;;;761.97;696.25;;;-3.40;99.90;;;;;;4983377;28;20404;-81
2024/01/10 10:16:09;;;;;;;522.53;483.13;;;-2.60;99.90;;;;;;4996008;28;20390;-81
2024/01/10 10:18:35;;;;;;;510.83;472.23;;;-2.80;99.90;;;;;;4986907;28;20068;-80
2024/01/10 10:21:11;;;;;;;476.13;440.52;;;-1.70;99.90;;;;;;5010742;28;20567;-82
2024/01/10 10:23:38;;;;;;;484.00;447.80;;;-3.20;99.90;;;;;;4958386;28;20059;-80
2024/01/10 10:26:20;;;;;;;466.88;432.77;;;-2.30;99.90;;;;;;5001813;28;20608;-81
2024/01/10 10:28:47;;;;;;;523.58;484.05;;;-3.10;99.90;;;;;;5003444;28;20495;-81
2024/01/10 10:31:13;;;;;;;510.05;471.58;;;-3.10;99.90;;;;;;4991947;28;20047;-81
2024/01/10 10:33:39;;;;;;;420.40;389.92;;;-2.60;99.90;;;;;;4953293;28;20047;-81
2024/01/10 10:36:06;;;;;;;489.27;453.45;;;-2.20;99.90;;;;;;4969131;28;20129;-81
2024/01/10 10:38:31;;;;;;;454.85;421.15;;;-3.00;99.90;;;;;;4984841;28;20046;-80
2024/01/10 10:40:59;;;;;;;434.42;402.35;;;-2.00;99.90;;;;;;4990849;28;20371;-81
2024/01/10 10:43:26;;;;;;;503.17;465.88;;;-2.90;99.90;;;;;;4998596;28;20098;-82
2024/01/10 10:45:51;;;;;;;339.17;314.67;;;-2.20;99.90;;;;;;4979272;28;20108;-81
2024/01/10 10:48:20;;;;;;;312.60;290.80;;;-2.10;99.90;;;;;;4971088;28;20058;-82
2024/01/10 10:51:03;;;;;;;390.17;361.73;;;-1.40;99.90;;;;;;4983258;28;20038;-81
2024/01/10 10:53:30;;;;;;;477.15;441.48;;;-2.80;99.90;;;;;;4966606;28;20068;-82
2024/01/10 10:55:56;;;;;;;488.88;452.02;;;-2.30;99.90;;;;;;4979890;28;20042;-82
2024/01/10 10:58:22;;;;;;;442.88;410.45;;;-1.90;99.90;;;;;;4997205;28;20053;-82
2024/01/10 11:00:50;;;;;;;485.45;448.77;;;-2.10;99.90;;;;;;4999991;28;20374;-82
2024/01/10 11:03:17;;;;;;;530.65;490.05;;;-1.10;99.90;;;;;;5001715;28;20405;-82
2024/01/10 11:05:44;;;;;;;451.90;418.20;;;-1.60;99.90;;;;;;4988982;28;20054;-82
2024/01/10 11:08:14;;;;;;;532.92;491.90;;;-1.00;99.90;;;;;;4982790;28;20122;-82
2024/01/10 11:10:42;;;;;;;355.02;328.83;;;-2.20;99.90;;;;;;4985285;28;20038;-82
2024/01/10 11:13:27;;;;;;;463.75;428.80;;;-2.40;99.90;;;;;;4973454;28;20041;-82
2024/01/10 11:16:10;;;;;;;289.38;268.80;;;-2.40;99.90;;;;;;4981915;28;20047;-82
2024/01/10 11:18:39;;;;;;;;;;;-2.40;99.90;;;;;;5008713;28;20081;-82
2024/01/10 11:21:05;;;;;;;641.58;589.78;;;-2.40;99.90;;;;;;4991945;28;20026;-82
2024/01/10 11:23:32;;;;;;;536.78;494.88;;;-2.40;99.90;;;;;;5007647;28;20051;-82
2024/01/10 11:25:59;;;;;;;430.25;398.23;;;-2.30;99.90;;;;;;4996228;28;20042;-81
2024/01/10 11:28:27;;;;;;;378.80;350.65;;;-2.10;99.90;;;;;;4970529;28;20052;-81
2024/01/10 11:30:53;;;;;;;367.40;340.17;;;-1.70;99.90;;;;;;5034919;27;20481;-81
2024/01/10 11:33:24;;;;;;;443.40;410.00;;;-1.60;99.90;;;;;;4993324;28;20085;-81
2024/01/10 11:36:09;;;;;;;379.52;351.52;;;-2.20;99.90;;;;;;4998737;28;20037;-81
2024/01/10 11:38:51;;;;;;;213.98;199.38;;;-0.90;99.90;;;;;;4992992;28;20050;-81
2024/01/10 11:41:27;;;;;;;419.25;387.33;;;-2.10;99.90;;;;;;5037976;27;20078;-80
2024/01/10 11:44:11;;;;;;;175.63;164.25;;;-2.10;99.90;;;;;;5003560;28;20038;-81
2024/01/10 11:46:39;;;;;;;322.42;299.17;;;-0.90;99.90;;;;;;5002352;28;20615;-80
2024/01/10 11:49:13;;;;;;;260.05;241.95;;;-2.00;99.90;;;;;;4975807;28;20057;-81
2024/01/10 11:51:41;;;;;;;183.98;172.02;;;-1.20;99.90;;;;;;5003306;28;20520;-80
2024/01/10 11:54:07;;;;;;;228.07;212.00;;;-0.50;99.90;;;;;;5006090;28;20046;-81
2024/01/10 11:56:41;;;;;;;279.55;259.13;;;-2.00;99.90;;;;;;4999891;28;20110;-81
2024/01/10 11:59:10;;;;;;;212.93;198.40;;;-1.20;99.90;;;;;;4986171;28;20054;-80